createdAt,value
2022-12-05T00:02:04.597Z,2.80
2022-12-05T00:04:32.821Z,2.80
2022-12-05T00:07:00.962Z,2.90
2022-12-05T00:09:29.144Z,2.80
2022-12-05T00:11:57.760Z,2.80
2022-12-05T00:14:25.963Z,2.90
2022-12-05T00:16:55.501Z,2.80
2022-12-05T00:19:23.811Z,2.70
2022-12-05T00:21:51.814Z,2.80
2022-12-05T00:24:20.878Z,2.80
2022-12-05T00:26:48.909Z,2.80
2022-12-05T00:29:17.124Z,2.90
2022-12-05T00:31:48.682Z,2.90
2022-12-05T00:34:18.414Z,2.90
2022-12-05T00:36:48.604Z,2.90
2022-12-05T00:39:16.597Z,2.90
2022-12-05T00:41:45.159Z,2.90
2022-12-05T00:44:15.753Z,2.80
2022-12-05T00:46:46.129Z,2.80
2022-12-05T00:49:14.224Z,2.70
2022-12-05T00:51:44.483Z,2.70
2022-12-05T00:54:14.380Z,2.70
2022-12-05T00:56:43.285Z,2.70
2022-12-05T00:59:16.012Z,2.60
2022-12-05T01:01:45.920Z,2.60
2022-12-05T01:04:16.216Z,2.50
2022-12-05T01:06:46.036Z,2.50
2022-12-05T01:09:15.926Z,2.50
2022-12-05T01:11:44.505Z,2.60
2022-12-05T01:14:13.469Z,2.60
2022-12-05T01:16:43.378Z,2.70
2022-12-05T01:19:15.273Z,2.60
2022-12-05T01:21:44.881Z,2.60
2022-12-05T01:24:13.493Z,2.70
2022-12-05T01:26:44.554Z,2.70
2022-12-05T01:29:15.179Z,2.70
2022-12-05T01:31:43.633Z,2.80
2022-12-05T01:34:13.698Z,2.90
2022-12-05T01:36:42.603Z,2.80
2022-12-05T01:39:13.661Z,2.90
2022-12-05T01:41:43.657Z,2.80
2022-12-05T01:44:44.771Z,2.90
2022-12-05T01:47:12.845Z,2.80
2022-12-05T01:49:43.774Z,2.80
2022-12-05T01:52:15.631Z,2.80
2022-12-05T01:54:46.978Z,2.70
2022-12-05T01:57:16.318Z,2.70
2022-12-05T01:59:48.557Z,2.70
2022-12-05T02:02:17.021Z,2.70
2022-12-05T02:04:50.137Z,2.70
2022-12-05T02:07:19.318Z,2.60
2022-12-05T02:09:51.983Z,2.60
2022-12-05T02:12:22.393Z,2.50
2022-12-05T02:15:03.493Z,2.60
2022-12-05T02:17:40.058Z,2.50
2022-12-05T02:20:40.542Z,2.50
2022-12-05T02:23:44.389Z,2.50
2022-12-05T02:26:32.812Z,2.50
2022-12-05T02:29:43.591Z,2.50
2022-12-05T02:32:16.134Z,2.50
2022-12-05T02:34:53.109Z,2.50
2022-12-05T02:37:28.983Z,2.50
2022-12-05T02:40:06.563Z,2.50
2022-12-05T02:42:39.070Z,2.50
2022-12-05T02:45:11.873Z,2.50
2022-12-05T02:47:42.632Z,2.50
2022-12-05T02:50:13.669Z,2.50
2022-12-05T02:52:43.131Z,2.50
2022-12-05T02:55:12.013Z,2.40
2022-12-05T02:57:41.855Z,2.30
2022-12-05T03:00:12.973Z,2.30
2022-12-05T03:02:41.676Z,2.40
2022-12-05T03:05:18.483Z,2.40
2022-12-05T03:07:50.156Z,2.40
2022-12-05T03:10:21.653Z,2.40
2022-12-05T03:12:57.140Z,2.40
2022-12-05T03:15:31.651Z,2.30
2022-12-05T03:18:06.520Z,2.30
2022-12-05T03:20:37.850Z,2.30
2022-12-05T03:23:11.969Z,2.30
2022-12-05T03:25:53.000Z,2.30
2022-12-05T03:28:26.316Z,2.30
2022-12-05T03:31:02.396Z,2.30
2022-12-05T03:33:39.874Z,2.20
2022-12-05T03:36:14.680Z,2.30
2022-12-05T03:38:48.857Z,2.30
2022-12-05T03:41:24.079Z,2.30
2022-12-05T03:43:58.947Z,2.30
2022-12-05T03:46:32.973Z,2.30
2022-12-05T03:49:08.437Z,2.30
2022-12-05T03:51:40.204Z,2.30
2022-12-05T03:54:18.215Z,2.40
2022-12-05T03:56:50.343Z,2.40
2022-12-05T03:59:26.132Z,2.50
2022-12-05T04:01:59.206Z,2.50
2022-12-05T04:04:31.607Z,2.40
2022-12-05T04:07:03.814Z,2.50
2022-12-05T04:09:36.941Z,2.50
2022-12-05T04:12:09.270Z,2.50
2022-12-05T04:14:42.926Z,2.50
2022-12-05T04:17:19.440Z,2.40
2022-12-05T04:20:09.778Z,2.40
2022-12-05T04:22:39.231Z,2.40
2022-12-05T04:25:28.660Z,2.40
2022-12-05T04:28:06.792Z,2.40
2022-12-05T04:30:40.716Z,2.40
2022-12-05T04:33:16.872Z,2.40
2022-12-05T04:35:51.069Z,2.40
2022-12-05T04:38:24.246Z,2.50
2022-12-05T04:40:58.207Z,2.50
2022-12-05T04:43:27.706Z,2.50
2022-12-05T04:45:58.843Z,2.50
2022-12-05T04:48:30.197Z,2.50
2022-12-05T04:50:58.846Z,2.50
2022-12-05T04:53:30.380Z,2.40
2022-12-05T04:56:01.340Z,2.30
2022-12-05T04:58:31.100Z,2.30
2022-12-05T05:01:06.224Z,2.30
2022-12-05T05:03:43.427Z,2.30
2022-12-05T05:06:13.500Z,2.40
2022-12-05T05:08:49.431Z,2.30
2022-12-05T05:11:20.308Z,2.30
2022-12-05T05:13:48.469Z,2.30
2022-12-05T05:16:19.415Z,2.30
2022-12-05T05:18:50.255Z,2.30
2022-12-05T05:21:21.449Z,2.40
2022-12-05T05:23:49.821Z,2.30
2022-12-05T05:26:18.654Z,2.30
2022-12-05T05:28:47.350Z,2.30
2022-12-05T05:31:16.166Z,2.30
2022-12-05T05:33:44.213Z,2.20
2022-12-05T05:36:14.921Z,2.30
2022-12-05T05:38:44.533Z,2.20
2022-12-05T05:41:15.384Z,2.20
2022-12-05T05:43:44.095Z,2.30
2022-12-05T05:46:12.591Z,2.20
2022-12-05T05:48:40.683Z,2.30
2022-12-05T05:51:11.050Z,2.30
2022-12-05T05:53:40.747Z,2.30
2022-12-05T05:56:10.820Z,2.40
2022-12-05T05:58:39.232Z,2.30
2022-12-05T06:01:08.237Z,2.30
2022-12-05T06:03:36.836Z,2.30
2022-12-05T06:06:07.393Z,2.30
2022-12-05T06:08:37.471Z,2.40
2022-12-05T06:11:08.427Z,2.40
2022-12-05T06:13:37.109Z,2.40
2022-12-05T06:16:07.681Z,2.40
2022-12-05T06:18:36.318Z,2.40
2022-12-05T06:21:05.825Z,2.40
2022-12-05T06:23:34.425Z,2.50
2022-12-05T06:26:03.613Z,2.40
2022-12-05T06:28:33.425Z,2.40
2022-12-05T06:31:01.427Z,2.50
2022-12-05T06:33:29.798Z,2.50
2022-12-05T06:36:07.152Z,2.50
2022-12-05T06:38:39.142Z,2.50
2022-12-05T06:41:12.719Z,2.40
2022-12-05T06:43:42.348Z,2.40
2022-12-05T06:46:12.538Z,2.40
2022-12-05T06:48:40.854Z,2.40
2022-12-05T06:51:11.016Z,2.40
2022-12-05T06:53:39.309Z,2.40
2022-12-05T06:56:12.485Z,2.40
2022-12-05T06:58:42.923Z,2.50
2022-12-05T07:01:33.353Z,2.50
2022-12-05T07:04:04.495Z,2.50
2022-12-05T07:06:33.451Z,2.50
2022-12-05T07:09:01.871Z,2.50
2022-12-05T07:11:30.029Z,2.50
2022-12-05T07:13:59.472Z,2.60
2022-12-05T07:16:27.537Z,2.60
2022-12-05T07:18:56.368Z,2.60
2022-12-05T07:21:25.158Z,2.70
2022-12-05T07:23:53.562Z,2.60
2022-12-05T07:26:23.393Z,2.60
2022-12-05T07:28:52.557Z,2.70
2022-12-05T07:31:26.048Z,2.70
2022-12-05T07:33:54.082Z,2.80
2022-12-05T07:36:23.837Z,2.70
2022-12-05T07:38:57.160Z,2.70
2022-12-05T07:41:27.203Z,2.70
2022-12-05T07:43:57.018Z,2.70
2022-12-05T07:46:28.077Z,2.70
2022-12-05T07:48:56.627Z,2.80
2022-12-05T07:51:24.865Z,2.80
2022-12-05T07:53:53.657Z,2.80
2022-12-05T07:56:22.895Z,2.80
2022-12-05T07:58:51.629Z,2.80
2022-12-05T08:01:21.480Z,2.70
2022-12-05T08:03:51.703Z,2.70
2022-12-05T08:06:21.688Z,2.70
2022-12-05T08:08:50.066Z,2.70
2022-12-05T08:11:20.057Z,2.70
2022-12-05T08:13:48.361Z,2.90
2022-12-05T08:16:18.914Z,2.80
2022-12-05T08:18:50.415Z,2.80
2022-12-05T08:21:20.989Z,2.80
2022-12-05T08:23:49.021Z,2.90
2022-12-05T08:26:18.709Z,2.90
2022-12-05T08:28:46.997Z,3.00
2022-12-05T08:31:16.895Z,2.90
2022-12-05T08:33:45.931Z,2.90
2022-12-05T08:36:16.409Z,2.90
2022-12-05T08:38:47.229Z,3.00
2022-12-05T08:41:18.806Z,2.90
2022-12-05T08:43:47.107Z,2.90
2022-12-05T08:46:15.220Z,2.80
2022-12-05T08:48:45.457Z,2.90
2022-12-05T08:51:14.286Z,2.90
2022-12-05T08:53:44.681Z,3.00
2022-12-05T08:56:17.078Z,3.00
2022-12-05T08:58:46.282Z,3.00
2022-12-05T09:01:16.683Z,3.00
2022-12-05T09:03:48.140Z,3.10
2022-12-05T09:06:18.733Z,3.10
2022-12-05T09:08:47.191Z,3.10
2022-12-05T09:11:21.238Z,3.00
2022-12-05T09:13:49.579Z,3.00
2022-12-05T09:16:20.015Z,3.00
2022-12-05T09:18:49.645Z,3.00
2022-12-05T09:21:19.303Z,3.10
2022-12-05T09:23:47.938Z,3.10
2022-12-05T09:26:19.267Z,3.10
2022-12-05T09:28:47.905Z,3.20
2022-12-05T09:31:18.291Z,3.20
2022-12-05T09:33:46.855Z,3.20
2022-12-05T09:36:17.763Z,3.20
2022-12-05T09:38:46.381Z,3.10
2022-12-05T09:41:46.495Z,3.10
2022-12-05T09:44:23.559Z,3.10
2022-12-05T09:46:56.594Z,3.20
2022-12-05T09:49:25.828Z,3.20
2022-12-05T09:51:56.100Z,3.30
2022-12-05T09:54:26.788Z,3.30
2022-12-05T09:56:56.417Z,3.20
2022-12-05T09:59:28.217Z,3.20
2022-12-05T10:02:03.153Z,3.20
2022-12-05T10:04:57.017Z,3.20
2022-12-05T10:07:35.977Z,3.30
2022-12-05T10:10:21.029Z,3.30
2022-12-05T10:13:15.527Z,3.30
2022-12-05T10:15:51.911Z,3.30
2022-12-05T10:18:31.224Z,3.30
2022-12-05T10:21:04.585Z,3.40
2022-12-05T10:23:57.131Z,3.40
2022-12-05T10:26:29.544Z,3.50
2022-12-05T10:29:08.375Z,3.40
2022-12-05T10:31:40.138Z,3.40
2022-12-05T10:34:24.351Z,3.50
2022-12-05T10:36:59.574Z,3.40
2022-12-05T10:39:28.632Z,3.40
2022-12-05T10:41:56.808Z,3.40
2022-12-05T10:44:26.253Z,3.40
2022-12-05T10:46:54.445Z,3.50
2022-12-05T10:49:24.525Z,3.50
2022-12-05T10:51:52.926Z,3.50
2022-12-05T10:54:24.728Z,3.50
2022-12-05T10:56:54.403Z,3.50
2022-12-05T10:59:24.409Z,3.50
2022-12-05T11:02:00.304Z,3.60
2022-12-05T11:04:32.841Z,3.50
2022-12-05T11:07:02.488Z,3.50
2022-12-05T11:09:32.726Z,3.50
2022-12-05T11:12:21.957Z,3.50
2022-12-05T11:15:03.477Z,3.60
2022-12-05T11:17:35.338Z,3.60
2022-12-05T11:20:05.460Z,3.60
2022-12-05T11:22:35.836Z,3.60
2022-12-05T11:25:26.069Z,3.60
2022-12-05T11:27:57.128Z,3.70
2022-12-05T11:30:30.205Z,3.70
2022-12-05T11:33:20.412Z,3.70
2022-12-05T11:35:49.385Z,3.70
2022-12-05T11:38:20.326Z,3.70
2022-12-05T11:40:54.879Z,3.60
2022-12-05T11:43:51.813Z,3.60
2022-12-05T11:46:33.936Z,3.60
2022-12-05T11:49:21.383Z,3.60
2022-12-05T11:52:02.417Z,3.60
2022-12-05T11:55:07.646Z,3.60
2022-12-05T11:57:52.592Z,3.60
2022-12-05T12:00:25.936Z,3.60
2022-12-05T12:03:45.072Z,3.60
2022-12-05T12:06:30.442Z,3.60
2022-12-05T12:09:16.570Z,3.60
2022-12-05T12:11:50.812Z,3.60
2022-12-05T12:14:27.052Z,3.60
2022-12-05T12:17:05.239Z,3.70
2022-12-05T12:19:46.177Z,3.60
2022-12-05T12:22:38.778Z,3.70
2022-12-05T12:25:29.753Z,3.60
2022-12-05T12:28:08.970Z,3.60
2022-12-05T12:30:54.445Z,3.60
2022-12-05T12:33:33.722Z,3.60
2022-12-05T12:36:16.760Z,3.60
2022-12-05T12:39:16.164Z,3.70
2022-12-05T12:42:02.317Z,3.70
2022-12-05T12:44:48.974Z,3.70
2022-12-05T12:47:24.732Z,3.70
2022-12-05T12:50:10.163Z,3.70
2022-12-05T12:52:56.582Z,3.70
2022-12-05T12:55:31.801Z,3.70
2022-12-05T12:58:14.222Z,3.70
2022-12-05T13:00:57.177Z,3.70
2022-12-05T13:03:29.603Z,3.70
2022-12-05T13:06:00.952Z,3.70
2022-12-05T13:08:36.560Z,3.70
2022-12-05T13:11:09.515Z,3.70
2022-12-05T13:13:42.912Z,3.80
2022-12-05T13:16:18.289Z,3.70
2022-12-05T13:18:47.344Z,3.60
2022-12-05T13:21:18.681Z,3.70
2022-12-05T13:23:49.964Z,3.70
2022-12-05T13:26:19.650Z,3.70
2022-12-05T13:28:54.404Z,3.70
2022-12-05T13:31:36.675Z,3.70
2022-12-05T13:34:04.804Z,3.70
2022-12-05T13:36:59.141Z,3.70
2022-12-05T13:39:44.680Z,3.80
2022-12-05T13:42:24.489Z,3.80
2022-12-05T13:44:55.708Z,3.80
2022-12-05T13:47:31.517Z,3.80
2022-12-05T13:50:09.737Z,3.80
2022-12-05T13:52:44.637Z,3.80
2022-12-05T13:55:35.604Z,3.80
2022-12-05T13:58:38.944Z,3.80
2022-12-05T14:01:47.610Z,3.80
2022-12-05T14:04:41.135Z,3.80
2022-12-05T14:07:11.231Z,3.80
2022-12-05T14:09:51.972Z,3.80
2022-12-05T14:12:49.311Z,3.70
2022-12-05T14:15:42.698Z,3.80
2022-12-05T14:18:16.123Z,3.70
2022-12-05T14:20:52.063Z,3.70
2022-12-05T14:23:58.259Z,3.70
2022-12-05T14:26:48.965Z,3.70
2022-12-05T14:29:34.485Z,3.70
2022-12-05T14:32:19.052Z,3.70
2022-12-05T14:34:57.021Z,3.70
2022-12-05T14:37:31.272Z,3.60
2022-12-05T14:40:01.145Z,3.70
2022-12-05T14:42:37.077Z,3.70
2022-12-05T14:45:24.614Z,3.70
2022-12-05T14:47:57.105Z,3.60
2022-12-05T14:50:44.536Z,3.60
2022-12-05T14:53:22.194Z,3.60
2022-12-05T14:55:53.862Z,3.60
2022-12-05T14:58:30.529Z,3.60
2022-12-05T15:01:01.236Z,3.70
2022-12-05T15:03:35.237Z,3.70
2022-12-05T15:06:06.792Z,3.70
2022-12-05T15:08:45.330Z,3.70
2022-12-05T15:11:28.328Z,3.60
2022-12-05T15:14:00.016Z,3.70
2022-12-05T15:16:30.115Z,3.70
2022-12-05T15:19:04.727Z,3.70
2022-12-05T15:21:36.944Z,3.70
2022-12-05T15:24:07.231Z,3.70
2022-12-05T15:26:48.952Z,3.70
2022-12-05T15:29:25.544Z,3.60
2022-12-05T15:31:56.050Z,3.60
2022-12-05T15:34:30.126Z,3.70
2022-12-05T15:37:03.687Z,3.70
2022-12-05T15:39:50.249Z,3.70
2022-12-05T15:42:18.371Z,3.80
2022-12-05T15:44:46.451Z,3.80
2022-12-05T15:47:21.315Z,3.80
2022-12-05T15:49:50.873Z,3.80
2022-12-05T15:52:30.420Z,3.80
2022-12-05T15:55:03.861Z,3.80
2022-12-05T15:57:41.735Z,3.80
2022-12-05T16:00:18.040Z,3.80
2022-12-05T16:02:49.267Z,3.80
2022-12-05T16:08:08.809Z,3.80
2022-12-05T16:10:52.274Z,3.80
2022-12-05T16:13:28.333Z,3.90
2022-12-05T16:15:56.935Z,3.80
2022-12-05T16:18:28.578Z,3.80
2022-12-05T16:20:58.709Z,3.80
2022-12-05T16:23:30.090Z,3.80
2022-12-05T16:26:19.829Z,3.90
2022-12-05T16:28:59.203Z,3.80
2022-12-05T16:31:43.450Z,3.80
2022-12-05T16:34:18.236Z,3.80
2022-12-05T16:37:08.678Z,3.80
2022-12-05T16:39:37.351Z,3.90
2022-12-05T16:42:18.685Z,3.80
2022-12-05T16:45:41.397Z,3.80
2022-12-05T16:48:34.228Z,3.80
2022-12-05T16:54:43.126Z,3.70
2022-12-05T16:57:41.060Z,3.80
2022-12-05T17:03:25.615Z,3.80
2022-12-05T17:05:57.479Z,3.80
2022-12-05T17:08:48.741Z,3.80
2022-12-05T17:15:37.633Z,3.80
2022-12-05T17:21:27.581Z,3.90
2022-12-05T17:24:37.902Z,3.90
2022-12-05T17:27:17.213Z,3.90
2022-12-05T17:30:02.836Z,3.80
2022-12-05T17:32:33.780Z,3.80
2022-12-05T17:38:12.509Z,3.80
2022-12-05T17:40:44.134Z,3.90
2022-12-05T17:43:17.614Z,3.90
2022-12-05T17:45:50.157Z,3.90
2022-12-05T17:48:22.853Z,3.90
2022-12-05T17:50:52.448Z,4.00
2022-12-05T17:53:23.010Z,4.00
2022-12-05T17:55:52.240Z,4.00
2022-12-05T17:58:45.954Z,4.00
2022-12-05T18:01:17.106Z,4.00
2022-12-05T18:03:48.853Z,4.00
2022-12-05T18:06:42.623Z,4.00
2022-12-05T18:10:24.994Z,4.00
2022-12-05T18:12:53.928Z,4.00
2022-12-05T18:22:54.900Z,4.00
2022-12-05T18:25:51.009Z,4.00
2022-12-05T18:28:23.081Z,4.10
2022-12-05T18:31:16.868Z,4.10
2022-12-05T18:36:39.123Z,4.10
2022-12-05T18:39:07.224Z,4.20
2022-12-05T18:41:35.266Z,4.20
2022-12-05T18:44:03.327Z,4.20
2022-12-05T18:46:32.771Z,4.20
2022-12-05T18:49:03.553Z,4.20
2022-12-05T18:51:32.353Z,4.20
2022-12-05T18:54:00.527Z,4.20
2022-12-05T18:56:31.328Z,4.10
2022-12-05T18:59:03.380Z,4.20
2022-12-05T19:01:34.250Z,4.20
2022-12-05T19:04:04.000Z,4.20
2022-12-05T19:06:33.856Z,4.20
2022-12-05T19:09:03.661Z,4.30
2022-12-05T19:11:32.283Z,4.30
2022-12-05T19:14:01.940Z,4.30
2022-12-05T19:16:33.183Z,4.20
2022-12-05T19:19:03.336Z,4.20
2022-12-05T19:21:33.254Z,4.20
2022-12-05T19:24:06.926Z,4.30
2022-12-05T19:26:36.080Z,4.30
2022-12-05T19:29:04.874Z,4.30
2022-12-05T19:31:36.126Z,4.30
2022-12-05T19:34:06.329Z,4.30
2022-12-05T19:36:38.566Z,4.30
2022-12-05T19:39:10.060Z,4.40
2022-12-05T19:41:38.635Z,4.40
2022-12-05T19:44:06.937Z,4.40
2022-12-05T19:46:36.890Z,4.40
2022-12-05T19:49:07.201Z,4.30
2022-12-05T19:51:35.992Z,4.30
2022-12-05T19:54:05.850Z,4.30
2022-12-05T19:56:35.384Z,4.30
2022-12-05T19:59:03.508Z,4.40
2022-12-05T20:01:33.320Z,4.40
2022-12-05T20:04:04.641Z,4.40
2022-12-05T20:06:34.447Z,4.40
2022-12-05T20:09:02.896Z,4.40
2022-12-05T20:11:31.425Z,4.40
2022-12-05T20:14:01.402Z,4.40
2022-12-05T20:16:30.588Z,4.50
2022-12-05T20:18:59.647Z,4.50
2022-12-05T20:21:32.841Z,4.40
2022-12-05T20:24:02.808Z,4.40
2022-12-05T20:26:32.795Z,4.40
2022-12-05T20:29:02.058Z,4.50
2022-12-05T20:31:34.642Z,4.40
2022-12-05T20:34:03.143Z,4.40
2022-12-05T20:36:35.048Z,4.40
2022-12-05T20:39:05.366Z,4.40
2022-12-05T20:41:33.657Z,4.30
2022-12-05T20:44:04.209Z,4.30
2022-12-05T20:46:32.851Z,4.30
2022-12-05T20:49:01.329Z,4.30
2022-12-05T20:51:31.105Z,4.30
2022-12-05T20:54:01.884Z,4.30
2022-12-05T20:56:31.650Z,4.40
2022-12-05T20:59:01.467Z,4.40
2022-12-05T21:01:31.770Z,4.40
2022-12-05T21:04:00.405Z,4.40
2022-12-05T21:06:30.596Z,4.40
2022-12-05T21:09:01.762Z,4.40
2022-12-05T21:11:31.101Z,4.50
2022-12-05T21:14:01.290Z,4.40
2022-12-05T21:16:31.465Z,4.40
2022-12-05T21:19:00.977Z,4.40
2022-12-05T21:21:30.042Z,4.40
2022-12-05T21:24:00.939Z,4.40
2022-12-05T21:26:30.930Z,4.40
2022-12-05T21:28:59.878Z,4.40
2022-12-05T21:31:29.609Z,4.30
2022-12-05T21:33:59.635Z,4.50
2022-12-05T21:36:29.302Z,4.50
2022-12-05T21:38:57.385Z,4.50
2022-12-05T21:41:27.343Z,4.50
2022-12-05T21:43:56.090Z,4.60
2022-12-05T21:46:25.000Z,4.60
2022-12-05T21:48:53.112Z,4.60
2022-12-05T21:51:21.878Z,4.60
2022-12-05T21:53:50.034Z,4.60
2022-12-05T21:56:20.165Z,4.60
2022-12-05T21:58:50.224Z,4.60
2022-12-05T22:01:21.021Z,4.60
2022-12-05T22:03:51.581Z,4.60
2022-12-05T22:06:19.647Z,4.70
2022-12-05T22:08:48.082Z,4.60
2022-12-05T22:11:18.009Z,4.70
2022-12-05T22:13:47.476Z,4.70
2022-12-05T22:16:18.418Z,4.70
2022-12-05T22:18:47.048Z,4.70
2022-12-05T22:21:17.252Z,4.70
2022-12-05T22:23:45.378Z,4.70
2022-12-05T22:26:15.570Z,4.70
2022-12-05T22:28:44.079Z,4.70
2022-12-05T22:31:14.505Z,4.70
2022-12-05T22:33:44.069Z,4.60
2022-12-05T22:36:13.625Z,4.60
2022-12-05T22:38:43.546Z,4.60
2022-12-05T22:41:14.237Z,4.60
2022-12-05T22:43:43.266Z,4.50
2022-12-05T22:46:13.811Z,4.60
2022-12-05T22:48:43.245Z,4.50
2022-12-05T22:51:12.261Z,4.50
2022-12-05T22:53:40.473Z,4.50
2022-12-05T22:56:10.226Z,4.50
2022-12-05T22:58:38.582Z,4.50
2022-12-05T23:01:11.538Z,4.50
2022-12-05T23:03:44.873Z,4.60
2022-12-05T23:06:14.326Z,4.60
2022-12-05T23:08:44.187Z,4.60
2022-12-05T23:11:13.067Z,4.60
2022-12-05T23:13:41.609Z,4.50
2022-12-05T23:16:12.178Z,4.50
2022-12-05T23:18:47.768Z,4.50
2022-12-05T23:21:20.235Z,4.50
2022-12-05T23:23:49.985Z,4.50
2022-12-05T23:26:20.321Z,4.50
2022-12-05T23:28:48.719Z,4.50
2022-12-05T23:31:17.366Z,4.50
2022-12-05T23:33:46.836Z,4.50
2022-12-05T23:36:19.963Z,4.60
2022-12-05T23:38:49.585Z,4.60
2022-12-05T23:41:20.093Z,4.60
2022-12-05T23:43:51.915Z,4.50
2022-12-05T23:46:22.476Z,4.50
2022-12-05T23:48:50.936Z,4.50
2022-12-05T23:51:22.537Z,4.50
2022-12-05T23:53:54.970Z,4.60
2022-12-05T23:56:25.609Z,4.60
2022-12-05T23:58:54.830Z,4.60
